Terminal Aerodrome Forecast
Issued by NWS

Home | Current Version | Previous Version | Text Only | Print | Product List | Glossary On
Versions: 1 2 3 4 5 6 7 8 9 10 11 12 13 14 15 16 17 18 19 20
000
FTUS46 KPDT 180540
TAFBDN
TAF
KBDN 180540Z 1806/1906 17011KT P6SM -SHRA BKN050 OVC090
     FM181000 19016G23KT P6SM BKN060 OVC100
     FM181500 20014G26KT P6SM -SHRA BKN045 OVC100
     FM182000 19012G22KT P6SM VCSH SCT050 BKN100=

USA.gov is the U.S. government's official web portal to all federal, state and local government web resources and services.